Time;durP1;ratioP1;P1;durP2;ratioP2;P2;SDS_P1;SDS_P2;PMS_P1;PMS_P2;Temp;Humidity;BMP_temperature;BMP_pressure;BME280_temperature;BME280_humidity;BME280_pressure;Samples;Min_cycle;Max_cycle;Signal;HPM_P1;HPM_P2
2023/11/05 00:00:09;;;;;;;17.55;3.22;;;;;;;8.38;100.00;97040.53;6075192;19;20011;-70
2023/11/05 00:02:16;;;;;;;17.98;3.17;;;;;;;8.41;100.00;97036.84;6077790;19;20034;-72
2023/11/05 00:04:22;;;;;;;20.75;4.70;;;;;;;8.45;100.00;97030.34;6081980;19;20038;-72
2023/11/05 00:06:27;;;;;;;19.85;5.20;;;;;;;8.49;100.00;97034.34;6082609;19;20024;-70
2023/11/05 00:08:32;;;;;;;13.82;3.05;;;;;;;8.43;100.00;97027.06;6081131;19;20156;-71
2023/11/05 00:10:38;;;;;;;10.80;2.80;;;;;;;8.40;100.00;97028.19;6079570;19;20534;-71
2023/11/05 00:12:43;;;;;;;13.10;3.03;;;;;;;8.41;100.00;97023.75;6079985;19;20006;-72
2023/11/05 00:14:50;;;;;;;17.67;3.10;;;;;;;8.40;100.00;97017.72;6078766;19;20006;-72
2023/11/05 00:16:54;;;;;;;9.35;3.00;;;;;;;8.35;100.00;97009.44;6078096;19;20017;-71
2023/11/05 00:19:02;;;;;;;14.95;3.20;;;;;;;8.45;100.00;97017.25;6078129;19;20028;-72
2023/11/05 00:21:06;;;;;;;9.40;3.20;;;;;;;8.48;100.00;97009.16;6078453;19;20034;-70
2023/11/05 00:23:11;;;;;;;13.63;3.58;;;;;;;8.50;100.00;97007.19;6078261;19;20003;-72
2023/11/05 00:25:13;;;;;;;16.38;3.25;;;;;;;8.47;100.00;97003.06;6076728;19;20391;-71
2023/11/05 00:27:21;;;;;;;11.55;3.13;;;;;;;8.47;100.00;97000.47;6078331;19;20007;-70
2023/11/05 00:29:23;;;;;;;17.58;3.30;;;;;;;8.45;100.00;96993.72;6080690;19;20074;-72
2023/11/05 00:31:28;;;;;;;11.20;4.70;;;;;;;8.51;100.00;96998.41;6081100;19;20015;-70
2023/11/05 00:33:34;;;;;;;18.15;3.38;;;;;;;8.46;100.00;96992.78;6079900;19;20775;-70
2023/11/05 00:35:44;;;;;;;16.13;3.53;;;;;;;8.53;100.00;96991.19;6080379;19;20005;-73
2023/11/05 00:37:47;;;;;;;15.98;3.47;;;;;;;8.57;100.00;96992.56;6077924;19;20495;-72
2023/11/05 00:39:52;;;;;;;12.82;3.55;;;;;;;8.63;100.00;96985.94;6081280;19;20360;-72
2023/11/05 00:41:54;;;;;;;18.02;4.07;;;;;;;8.73;100.00;96986.72;6079171;19;20038;-72
2023/11/05 00:44:00;;;;;;;10.85;2.78;;;;;;;8.75;100.00;96984.78;6078271;19;20538;-71
2023/11/05 00:46:08;;;;;;;12.13;3.03;;;;;;;8.76;100.00;96991.66;6079948;19;20007;-71
2023/11/05 00:48:13;;;;;;;14.90;3.65;;;;;;;8.71;100.00;96986.03;6077548;19;20010;-71
2023/11/05 00:50:18;;;;;;;17.95;3.63;;;;;;;8.70;100.00;96989.63;6075917;19;20479;-71
2023/11/05 00:52:28;;;;;;;16.30;3.50;;;;;;;8.84;100.00;96988.31;6073195;19;20097;-72
2023/11/05 00:54:33;;;;;;;4.70;2.20;;;;;;;8.85;100.00;96985.56;6076058;19;20023;-72
2023/11/05 00:56:38;;;;;;;10.80;3.78;;;;;;;8.88;100.00;96992.31;6077855;19;20021;-72
2023/11/05 00:58:41;;;;;;;11.25;3.17;;;;;;;8.89;100.00;96993.94;6075379;19;20035;-72
2023/11/05 01:00:46;;;;;;;17.95;2.65;;;;;;;8.85;100.00;96996.03;6077373;19;20006;-73
2023/11/05 01:02:51;;;;;;;17.08;3.33;;;;;;;8.89;100.00;96983.47;6077012;19;20078;-73
2023/11/05 01:04:56;;;;;;;19.15;2.90;;;;;;;8.90;100.00;96990.34;6080851;19;20815;-70
2023/11/05 01:07:01;;;;;;;14.38;3.40;;;;;;;8.89;100.00;96993.94;6079199;19;20003;-73
2023/11/05 01:09:09;;;;;;;19.67;4.28;;;;;;;8.84;100.00;96996.19;6078713;19;20354;-70
2023/11/05 01:11:14;;;;;;;12.80;3.13;;;;;;;8.83;100.00;96997.97;6075698;19;20054;-70
2023/11/05 01:13:19;;;;;;;8.52;2.72;;;;;;;8.91;100.00;96987.59;6078914;19;20057;-73
2023/11/05 01:15:24;;;;;;;16.40;3.28;;;;;;;8.90;100.00;96985.09;6077791;19;20381;-72
2023/11/05 01:17:29;;;;;;;18.17;4.28;;;;;;;8.87;100.00;96986.22;6077634;19;20054;-70
2023/11/05 01:19:34;;;;;;;13.55;3.22;;;;;;;8.87;100.00;96982.78;6076422;19;20014;-70
2023/11/05 01:21:39;;;;;;;12.95;2.63;;;;;;;8.88;100.00;96989.69;6080479;19;20550;-70
2023/11/05 01:23:42;;;;;;;11.90;2.88;;;;;;;8.84;100.00;96986.53;6074147;19;20003;-72
2023/11/05 01:25:49;;;;;;;23.38;3.75;;;;;;;8.82;100.00;96991.09;6077735;19;20018;-72
2023/11/05 01:27:54;;;;;;;13.15;3.33;;;;;;;8.81;100.00;96976.34;6079716;19;20007;-72
2023/11/05 01:29:59;;;;;;;9.57;2.85;;;;;;;8.78;100.00;96989.72;6079384;19;20019;-73
2023/11/05 01:32:08;;;;;;;9.23;3.47;;;;;;;8.83;100.00;96971.78;6080577;19;20014;-71
2023/11/05 01:34:13;;;;;;;16.15;3.35;;;;;;;8.89;100.00;96976.44;6073194;19;20134;-70
2023/11/05 01:36:19;;;;;;;13.73;2.97;;;;;;;8.87;100.00;96972.31;6076792;19;20550;-74
2023/11/05 01:38:24;;;;;;;7.60;2.53;;;;;;;8.86;100.00;96970.69;6078922;19;20014;-70
2023/11/05 01:40:26;;;;;;;11.07;2.90;;;;;;;8.85;100.00;96972.47;6077098;19;20011;-72
2023/11/05 01:42:34;;;;;;;17.85;3.90;;;;;;;8.90;100.00;96972.00;6077203;19;20011;-71
2023/11/05 01:44:39;;;;;;;16.05;2.75;;;;;;;8.84;100.00;96973.44;6077726;19;20481;-73
2023/11/05 01:46:44;;;;;;;9.85;2.47;;;;;;;8.81;100.00;96972.91;6075548;19;20525;-70
2023/11/05 01:48:50;;;;;;;7.35;2.28;;;;;;;8.82;100.00;96970.16;6077848;19;20837;-72
2023/11/05 01:50:55;;;;;;;15.35;4.43;;;;;;;8.81;100.00;96975.53;6077711;19;20034;-71
2023/11/05 01:52:58;;;;;;;7.35;2.45;;;;;;;8.84;100.00;96975.22;6072687;19;20066;-69
2023/11/05 01:55:06;;;;;;;10.50;2.80;;;;;;;8.83;100.00;96970.97;6078415;19;20007;-70
2023/11/05 01:57:11;;;;;;;13.02;3.53;;;;;;;8.81;100.00;96972.91;6074907;19;19998;-71
2023/11/05 01:59:19;;;;;;;11.38;2.88;;;;;;;8.81;100.00;96973.72;6076693;19;20027;-69
2023/11/05 02:01:25;;;;;;;13.27;3.63;;;;;;;8.82;100.00;96975.41;6076554;19;20377;-72
2023/11/05 02:03:27;;;;;;;19.67;3.63;;;;;;;8.79;100.00;96973.91;6074547;19;20010;-70
2023/11/05 02:05:33;;;;;;;15.20;2.28;;;;;;;8.83;100.00;96976.22;6076763;19;20554;-70
2023/11/05 02:07:38;;;;;;;14.88;3.30;;;;;;;8.83;100.00;96976.22;6075921;19;20022;-72
2023/11/05 02:09:44;;;;;;;12.00;3.03;;;;;;;8.88;100.00;96973.97;6077524;19;20720;-72
2023/11/05 02:11:50;;;;;;;15.65;3.40;;;;;;;8.86;100.00;96974.13;6072017;19;20435;-72
2023/11/05 02:13:52;;;;;;;14.52;3.33;;;;;;;8.87;100.00;96969.69;6076178;19;20359;-72
2023/11/05 02:16:01;;;;;;;8.65;2.65;;;;;;;8.88;100.00;96966.94;6077734;19;20031;-71
2023/11/05 02:18:06;;;;;;;14.60;2.72;;;;;;;8.89;100.00;96973.00;6074679;19;20558;-73
2023/11/05 02:20:12;;;;;;;10.60;2.90;;;;;;;8.86;100.00;96970.69;6074892;19;20034;-71
2023/11/05 02:22:23;;;;;;;9.52;3.45;;;;;;;8.83;100.00;96966.56;6072834;19;20360;-74
2023/11/05 02:24:31;;;;;;;9.23;2.38;;;;;;;8.78;100.00;96966.19;6075339;19;20014;-70
2023/11/05 02:26:36;;;;;;;11.00;2.90;;;;;;;8.78;100.00;96963.56;6076667;19;20010;-71
2023/11/05 02:28:41;;;;;;;13.00;3.25;;;;;;;8.80;100.00;96966.84;6075850;19;20086;-71
2023/11/05 02:30:46;;;;;;;12.80;2.60;;;;;;;8.76;100.00;96968.94;6075859;19;20041;-73
2023/11/05 02:32:51;;;;;;;9.18;3.58;;;;;;;8.79;100.00;96966.03;6079014;19;20010;-73
2023/11/05 02:34:56;;;;;;;13.05;2.67;;;;;;;8.76;100.00;96966.31;6076883;19;20525;-71
2023/11/05 02:37:01;;;;;;;12.65;2.78;;;;;;;8.74;100.00;96956.94;6076885;19;20101;-71
2023/11/05 02:39:07;;;;;;;10.63;2.22;;;;;;;8.79;100.00;96965.19;6076690;19;20078;-70
2023/11/05 02:41:15;;;;;;;5.93;2.85;;;;;;;8.77;100.00;96965.34;6076134;19;20020;-70
2023/11/05 02:43:20;;;;;;;7.00;2.33;;;;;;;8.83;100.00;96963.13;6076574;19;20478;-70
2023/11/05 02:45:25;;;;;;;8.35;2.95;;;;;;;8.82;100.00;96962.31;6077570;19;20017;-70
2023/11/05 02:47:30;;;;;;;14.00;2.60;;;;;;;8.75;100.00;96951.59;6076854;19;20014;-73
2023/11/05 02:49:33;;;;;;;8.93;2.67;;;;;;;8.76;100.00;96961.06;6078281;19;20002;-72
2023/11/05 02:51:38;;;;;;;4.47;2.10;;;;;;;8.80;100.00;96959.00;6073306;19;20616;-72
2023/11/05 02:53:43;;;;;;;6.57;2.45;;;;;;;8.76;100.00;96957.63;6071829;19;20026;-73
2023/11/05 02:55:48;;;;;;;8.25;3.15;;;;;;;8.74;100.00;96952.56;6072743;19;20014;-72
2023/11/05 02:57:56;;;;;;;11.07;2.92;;;;;;;8.71;100.00;96950.22;6076052;19;20494;-73
2023/11/05 03:00:01;;;;;;;5.28;3.00;;;;;;;8.73;100.00;96945.66;6073584;19;20562;-72
2023/11/05 03:02:06;;;;;;;10.70;4.07;;;;;;;8.74;100.00;96949.09;6075666;19;20030;-72
2023/11/05 03:04:11;;;;;;;6.72;2.60;;;;;;;8.77;100.00;96951.44;6073813;19;20002;-73
2023/11/05 03:06:16;;;;;;;7.38;3.10;;;;;;;8.77;100.00;96947.03;6075224;19;20500;-73
2023/11/05 03:08:21;;;;;;;12.18;2.90;;;;;;;8.77;100.00;96949.66;6074528;19;20002;-74
2023/11/05 03:10:26;;;;;;;13.55;3.47;;;;;;;8.73;100.00;96945.66;6075346;19;20010;-70
2023/11/05 03:12:31;;;;;;;6.18;3.95;;;;;;;8.79;100.00;96955.56;6068566;19;20018;-70
2023/11/05 03:14:39;;;;;;;6.78;3.38;;;;;;;8.76;100.00;96950.59;6066619;19;20010;-69
2023/11/05 03:16:44;;;;;;;4.80;2.50;;;;;;;8.80;100.00;96943.31;6070977;19;20097;-71
2023/11/05 03:18:50;;;;;;;12.63;3.70;;;;;;;8.82;100.00;96948.38;6073779;19;20006;-71
2023/11/05 03:20:55;;;;;;;10.43;3.10;;;;;;;8.77;100.00;96940.97;6077399;19;20542;-71
2023/11/05 03:23:01;;;;;;;12.30;3.95;;;;;;;8.81;100.00;96944.94;6078474;19;20018;-71
2023/11/05 03:25:07;;;;;;;9.68;2.63;;;;;;;8.78;100.00;96940.81;6076113;19;20126;-73
2023/11/05 03:27:11;;;;;;;9.98;3.20;;;;;;;8.81;100.00;96938.88;6081141;19;20580;-71
2023/11/05 03:29:20;;;;;;;7.13;2.67;;;;;;;8.79;100.00;96945.09;6083061;19;20034;-69
2023/11/05 03:31:27;;;;;;;10.98;3.88;;;;;;;8.76;100.00;96945.38;6081856;19;20011;-72
2023/11/05 03:33:33;;;;;;;11.30;3.83;;;;;;;8.81;100.00;96937.09;6079660;19;20010;-69
2023/11/05 03:35:41;;;;;;;10.88;3.75;;;;;;;8.79;100.00;96950.34;6081430;19;20030;-69
2023/11/05 03:37:46;;;;;;;11.73;3.53;;;;;;;8.83;100.00;96950.84;6074245;19;20070;-73
2023/11/05 03:39:55;;;;;;;14.38;4.38;;;;;;;8.86;100.00;96953.16;6077616;19;20002;-71
2023/11/05 03:42:00;;;;;;;10.07;3.28;;;;;;;8.86;100.00;96950.56;6076650;19;20011;-69
2023/11/05 03:44:09;;;;;;;13.70;4.38;;;;;;;8.85;100.00;96953.34;6076601;19;20013;-70
2023/11/05 03:46:17;;;;;;;13.38;4.75;;;;;;;8.88;100.00;96955.66;6079711;19;20034;-71
2023/11/05 03:48:26;;;;;;;13.05;4.00;;;;;;;8.84;100.00;96956.91;6078757;19;20326;-70
2023/11/05 03:50:31;;;;;;;10.18;3.47;;;;;;;8.83;100.00;96958.72;6078850;19;20033;-70
2023/11/05 03:52:37;;;;;;;22.55;4.47;;;;;;;8.85;100.00;96955.94;6074556;19;20006;-70
2023/11/05 03:54:42;;;;;;;13.27;3.22;;;;;;;8.88;100.00;96958.28;6077723;19;20340;-69
2023/11/05 03:56:47;;;;;;;11.07;4.05;;;;;;;8.86;100.00;96961.03;6073561;19;20018;-69
2023/11/05 03:58:49;;;;;;;13.77;3.47;;;;;;;8.83;100.00;96965.75;6076518;19;20069;-70
2023/11/05 04:00:54;;;;;;;9.25;3.28;;;;;;;8.87;100.00;96967.09;6077418;19;20313;-70
2023/11/05 04:02:59;;;;;;;9.85;3.97;;;;;;;8.91;100.00;96958.78;6075876;19;20069;-72
2023/11/05 04:05:08;;;;;;;9.52;3.55;;;;;;;8.91;100.00;96963.22;6074934;19;20105;-69
2023/11/05 04:07:13;;;;;;;11.18;3.45;;;;;;;8.92;100.00;96964.84;6078781;19;20146;-70
2023/11/05 04:09:18;;;;;;;5.50;2.80;;;;;;;8.94;100.00;96962.91;6080533;19;20039;-70
2023/11/05 04:11:23;;;;;;;15.20;4.05;;;;;;;8.90;100.00;96965.00;6075982;19;20011;-72
2023/11/05 04:13:28;;;;;;;10.65;4.45;;;;;;;8.92;100.00;96959.63;6078544;19;20030;-70
2023/11/05 04:15:33;;;;;;;14.75;3.85;;;;;;;8.95;100.00;96964.56;6074864;19;20005;-70
2023/11/05 04:17:41;;;;;;;8.57;3.53;;;;;;;8.95;100.00;96968.00;6078059;19;20005;-70
2023/11/05 04:19:43;;;;;;;7.80;3.65;;;;;;;8.98;100.00;96972.13;6078404;19;20039;-72
2023/11/05 04:21:51;;;;;;;17.63;4.18;;;;;;;8.97;100.00;96968.66;6080620;19;20006;-72
2023/11/05 04:23:56;;;;;;;13.80;3.80;;;;;;;9.00;100.00;96968.41;6078439;19;20006;-70
2023/11/05 04:26:01;;;;;;;11.18;4.03;;;;;;;9.01;100.00;96971.84;6074008;19;20006;-72
2023/11/05 04:28:07;;;;;;;12.18;3.55;;;;;;;9.04;100.00;96971.53;6077745;19;20002;-72
2023/11/05 04:30:14;;;;;;;8.60;3.22;;;;;;;9.08;100.00;96972.88;6077511;19;20010;-72
2023/11/05 04:32:19;;;;;;;11.40;4.30;;;;;;;9.06;100.00;96976.59;6078650;19;20010;-70
2023/11/05 04:34:27;;;;;;;12.38;3.88;;;;;;;9.01;100.00;96970.03;6075559;19;20014;-69
2023/11/05 04:36:35;;;;;;;13.57;3.42;;;;;;;9.00;100.00;96972.78;6078599;19;20035;-69
2023/11/05 04:38:41;;;;;;;11.55;3.35;;;;;;;9.02;100.00;96971.66;6072705;19;20026;-71
2023/11/05 04:40:46;;;;;;;8.65;3.63;;;;;;;9.04;100.00;96968.91;6079848;19;20003;-69
2023/11/05 04:42:52;;;;;;;14.00;4.53;;;;;;;9.07;100.00;96968.63;6076755;19;20070;-72
2023/11/05 04:44:58;;;;;;;14.80;3.08;;;;;;;9.07;100.00;96973.84;6075162;19;20006;-72
2023/11/05 04:47:03;;;;;;;8.70;3.83;;;;;;;9.02;100.00;96978.72;6078147;19;20022;-70
2023/11/05 04:49:07;;;;;;;11.82;2.83;;;;;;;9.02;100.00;96981.31;6078415;19;20011;-70
2023/11/05 04:51:12;;;;;;;10.95;3.30;;;;;;;9.02;100.00;96970.84;6078047;19;20002;-73
2023/11/05 04:53:18;;;;;;;11.82;2.95;;;;;;;9.01;100.00;96979.69;6074179;19;20791;-68
2023/11/05 04:55:25;;;;;;;11.27;3.58;;;;;;;9.04;100.00;96973.34;6077098;19;20015;-70
2023/11/05 04:57:27;;;;;;;8.82;3.17;;;;;;;9.03;100.00;96975.13;6073285;19;20376;-71
2023/11/05 04:59:34;;;;;;;8.45;3.80;;;;;;;9.04;100.00;96982.00;6077996;19;20071;-72
2023/11/05 05:01:39;;;;;;;11.10;3.55;;;;;;;9.05;100.00;96978.41;6077358;19;20018;-71
2023/11/05 05:03:44;;;;;;;8.40;3.47;;;;;;;9.04;100.00;96971.53;6080559;19;20061;-71
2023/11/05 05:05:51;;;;;;;12.65;4.95;;;;;;;9.04;100.00;96983.81;6076689;19;20013;-69
2023/11/05 05:07:54;;;;;;;9.18;3.17;;;;;;;9.07;100.00;96979.09;6078539;19;20031;-72
2023/11/05 05:10:03;;;;;;;7.10;3.10;;;;;;;9.05;100.00;96974.97;6079247;19;20038;-72
2023/11/05 05:12:11;;;;;;;14.30;3.95;;;;;;;9.08;100.00;96980.72;6078777;19;20010;-70
2023/11/05 05:14:16;;;;;;;9.32;3.58;;;;;;;9.08;100.00;96987.78;6072525;19;20613;-69
2023/11/05 05:16:22;;;;;;;9.60;3.10;;;;;;;9.11;100.00;96990.94;6076726;19;20006;-72
2023/11/05 05:18:26;;;;;;;9.38;3.42;;;;;;;9.08;100.00;96985.16;6079687;19;20003;-70
2023/11/05 05:20:32;;;;;;;10.27;4.07;;;;;;;9.08;100.00;96993.81;6078797;19;20050;-72
2023/11/05 05:22:36;;;;;;;15.02;3.15;;;;;;;9.14;100.00;96988.03;6078275;19;20046;-70
2023/11/05 05:24:43;;;;;;;8.98;3.33;;;;;;;9.11;100.00;96998.78;6078866;19;20010;-70
2023/11/05 05:26:48;;;;;;;14.20;2.97;;;;;;;9.13;100.00;97001.25;6079233;19;20007;-71
2023/11/05 05:28:56;;;;;;;14.27;3.13;;;;;;;9.14;100.00;96998.50;6073670;19;20284;-72
2023/11/05 05:31:01;;;;;;;12.32;4.00;;;;;;;9.18;100.00;96994.59;6078706;19;20279;-72
2023/11/05 05:33:03;;;;;;;9.75;3.33;;;;;;;9.14;100.00;97000.28;6076896;19;20018;-72
2023/11/05 05:35:09;;;;;;;7.70;2.72;;;;;;;9.11;100.00;97004.03;6078613;19;20006;-72
2023/11/05 05:37:16;;;;;;;8.68;3.83;;;;;;;9.10;100.00;97009.41;6079908;19;20020;-70
2023/11/05 05:39:21;;;;;;;7.40;3.50;;;;;;;9.10;100.00;97001.53;6077445;19;20066;-70
2023/11/05 05:41:26;;;;;;;8.32;3.20;;;;;;;9.07;100.00;97007.91;6079531;19;20003;-69
2023/11/05 05:43:31;;;;;;;12.52;3.38;;;;;;;9.06;100.00;96998.41;6075614;19;20010;-72
2023/11/05 05:45:39;;;;;;;10.63;3.28;;;;;;;9.05;100.00;97012.44;6076088;19;20049;-72
2023/11/05 05:47:44;;;;;;;8.10;2.60;;;;;;;9.01;100.00;97011.94;6080055;19;20082;-72
2023/11/05 05:49:47;;;;;;;12.35;4.07;;;;;;;9.06;100.00;97008.88;6077819;19;20345;-73
2023/11/05 05:51:52;;;;;;;9.57;3.17;;;;;;;9.03;100.00;97011.81;6079008;19;20374;-70
2023/11/05 05:53:57;;;;;;;15.07;4.50;;;;;;;9.02;100.00;97013.56;6076072;19;20464;-70
2023/11/05 05:55:59;;;;;;;6.53;2.63;;;;;;;9.06;100.00;97013.28;6078705;19;20025;-70
2023/11/05 05:58:04;;;;;;;8.65;3.30;;;;;;;9.03;100.00;97006.56;6075213;19;20147;-69
2023/11/05 06:00:11;;;;;;;15.95;4.07;;;;;;;9.04;100.00;97015.25;6076306;19;20460;-69
2023/11/05 06:02:20;;;;;;;12.23;3.78;;;;;;;9.04;100.00;97018.69;6075968;19;20007;-71
2023/11/05 06:04:25;;;;;;;12.60;3.35;;;;;;;9.06;100.00;97011.50;6079322;19;20003;-71
2023/11/05 06:06:27;;;;;;;8.85;2.78;;;;;;;9.02;100.00;97020.59;6076600;19;20013;-71
2023/11/05 06:08:35;;;;;;;14.50;4.50;;;;;;;9.03;100.00;97019.66;6078648;19;20616;-71
2023/11/05 06:10:40;;;;;;;14.15;4.03;;;;;;;9.05;100.00;97024.72;6076745;19;20003;-71
2023/11/05 06:12:46;;;;;;;12.27;3.67;;;;;;;9.00;100.00;97019.94;6072801;19;20365;-71
2023/11/05 06:14:51;;;;;;;10.05;3.72;;;;;;;8.97;100.00;97023.66;6077849;19;20082;-71
2023/11/05 06:17:10;;;;;;;7.30;3.40;;;;;;;9.03;100.00;97027.50;6079116;19;20391;-71
2023/11/05 06:19:18;;;;;;;8.27;3.70;;;;;;;9.06;100.00;97031.59;6074053;19;20018;-71
2023/11/05 06:21:20;;;;;;;17.65;4.22;;;;;;;9.01;100.00;97040.75;6076875;19;21288;-69
2023/11/05 06:23:25;;;;;;;14.68;4.22;;;;;;;8.99;100.00;97034.81;6078069;19;20558;-69
2023/11/05 06:25:30;;;;;;;12.25;3.85;;;;;;;9.03;100.00;97043.22;6078446;19;20002;-71
2023/11/05 06:27:35;;;;;;;10.85;3.22;;;;;;;9.02;100.00;97039.75;6077400;19;20018;-71
2023/11/05 06:29:40;;;;;;;11.77;3.33;;;;;;;9.04;100.00;97042.25;6072056;19;20006;-73
2023/11/05 06:31:45;;;;;;;13.27;4.47;;;;;;;9.04;100.00;97044.03;6077496;19;20078;-72
2023/11/05 06:33:50;;;;;;;11.57;3.72;;;;;;;9.07;100.00;97047.19;6076931;19;20003;-72
2023/11/05 06:35:58;;;;;;;10.05;3.67;;;;;;;9.11;100.00;97059.03;6076979;19;20392;-73
2023/11/05 06:38:03;;;;;;;10.73;3.00;;;;;;;9.10;100.00;97061.78;6076118;19;20333;-72
2023/11/05 06:40:10;;;;;;;16.50;3.58;;;;;;;9.10;100.00;97061.78;6076017;19;20063;-73
2023/11/05 06:42:15;;;;;;;7.05;3.00;;;;;;;9.11;100.00;97064.28;6076627;19;20009;-72
2023/11/05 06:44:20;;;;;;;10.88;3.10;;;;;;;9.13;100.00;97074.59;6077230;19;20443;-72
2023/11/05 06:46:26;;;;;;;16.42;3.28;;;;;;;9.15;100.00;97075.28;6076535;19;20015;-72
2023/11/05 06:48:36;;;;;;;11.50;4.35;;;;;;;9.14;100.00;97082.31;6077082;19;20014;-69
2023/11/05 06:50:41;;;;;;;13.07;4.28;;;;;;;9.15;100.00;97081.31;6075405;19;19998;-72
2023/11/05 06:52:49;;;;;;;10.40;3.72;;;;;;;9.14;100.00;97082.31;6073319;19;20006;-71
2023/11/05 06:54:56;;;;;;;14.52;3.95;;;;;;;9.17;100.00;97089.88;6074397;19;20022;-71
2023/11/05 06:57:02;;;;;;;22.35;4.13;;;;;;;9.19;100.00;97093.19;6072736;19;20447;-72
2023/11/05 06:59:08;;;;;;;14.82;3.47;;;;;;;9.19;100.00;97087.94;6076308;19;20014;-72
2023/11/05 07:01:13;;;;;;;12.77;4.22;;;;;;;9.25;100.00;97098.81;6077258;19;20010;-71
2023/11/05 07:03:23;;;;;;;17.13;3.03;;;;;;;9.22;100.00;97098.13;6077476;19;20011;-72
2023/11/05 07:05:29;;;;;;;12.73;4.47;;;;;;;9.30;100.00;97101.81;6075093;19;20582;-70
2023/11/05 07:07:34;;;;;;;10.98;3.08;;;;;;;9.28;100.00;97101.94;6074178;19;20044;-72
2023/11/05 07:09:42;;;;;;;7.63;3.08;;;;;;;9.30;100.00;97099.19;6076448;19;20405;-73
2023/11/05 07:11:47;;;;;;;14.05;3.53;;;;;;;9.28;100.00;97109.00;6074435;19;20007;-73
2023/11/05 07:13:49;;;;;;;14.02;3.47;;;;;;;9.31;100.00;97109.50;6073934;19;20459;-73
2023/11/05 07:15:54;;;;;;;11.18;3.92;;;;;;;9.32;100.00;97112.94;6076133;19;20579;-69
2023/11/05 07:17:59;;;;;;;11.10;3.40;;;;;;;9.26;100.00;97116.97;6072439;19;20901;-74
2023/11/05 07:20:05;;;;;;;13.05;3.60;;;;;;;9.31;100.00;97111.31;6074301;19;20006;-71
2023/11/05 07:22:11;;;;;;;16.58;4.28;;;;;;;9.29;100.00;97128.97;6075044;19;20455;-72
2023/11/05 07:24:17;;;;;;;8.75;3.38;;;;;;;9.32;100.00;97123.44;6075198;19;20030;-74
2023/11/05 07:26:24;;;;;;;22.00;4.05;;;;;;;9.32;100.00;97126.91;6075143;19;20023;-73
2023/11/05 07:28:30;;;;;;;9.90;3.10;;;;;;;9.32;100.00;97126.06;6077409;19;20036;-73
2023/11/05 07:30:35;;;;;;;13.75;4.15;;;;;;;9.34;100.00;97134.59;6073414;19;20007;-70
2023/11/05 07:32:40;;;;;;;11.18;3.78;;;;;;;9.38;100.00;97138.59;6077872;19;20027;-70
2023/11/05 07:34:46;;;;;;;11.77;3.55;;;;;;;9.36;100.00;97145.75;6077973;19;20006;-70
2023/11/05 07:36:52;;;;;;;12.30;4.35;;;;;;;9.35;100.00;97144.94;6070587;19;20015;-71
2023/11/05 07:38:57;;;;;;;13.90;3.33;;;;;;;9.40;100.00;97157.59;6076989;19;20078;-69
2023/11/05 07:41:02;;;;;;;11.63;4.03;;;;;;;9.40;100.00;97149.72;6073451;19;20471;-70
2023/11/05 07:43:09;;;;;;;9.00;2.53;;;;;;;9.39;100.00;97155.94;6071053;19;20011;-69
2023/11/05 07:45:15;;;;;;;9.95;3.42;;;;;;;9.38;100.00;97155.13;6076103;19;21338;-70
2023/11/05 07:47:20;;;;;;;12.63;3.90;;;;;;;9.42;100.00;97155.66;6077349;19;20820;-74
2023/11/05 07:49:25;;;;;;;12.90;4.00;;;;;;;9.45;100.00;97164.06;6058147;19;20031;-70
2023/11/05 07:51:31;;;;;;;26.85;5.43;;;;;;;9.49;100.00;97164.59;6055894;19;20050;-69
2023/11/05 07:53:36;;;;;;;15.23;4.05;;;;;;;9.54;100.00;97169.41;6068580;19;20010;-72
2023/11/05 07:55:41;;;;;;;18.15;4.43;;;;;;;9.51;100.00;97174.94;6079010;19;20466;-73
2023/11/05 07:57:46;;;;;;;11.65;3.95;;;;;;;9.51;100.00;97170.53;6058592;19;20657;-74
2023/11/05 07:59:54;;;;;;;14.13;4.25;;;;;;;9.50;100.00;97175.91;6075492;19;20547;-72
2023/11/05 08:01:59;;;;;;;12.80;4.07;;;;;;;9.51;100.00;97181.00;6076835;19;20010;-71
2023/11/05 08:04:04;;;;;;;8.48;4.00;;;;;;;9.55;100.00;97187.59;6077704;19;20066;-72
2023/11/05 08:06:10;;;;;;;14.18;4.15;;;;;;;9.57;100.00;97190.91;6077879;19;20006;-72
2023/11/05 08:08:12;;;;;;;12.50;4.32;;;;;;;9.66;100.00;97192.66;6077280;19;20011;-73
2023/11/05 08:10:18;;;;;;;14.40;4.15;;;;;;;9.67;100.00;97202.16;6079256;19;20006;-70
2023/11/05 08:12:23;;;;;;;14.50;4.03;;;;;;;9.69;100.00;97199.41;6081571;19;20011;-72
2023/11/05 08:14:28;;;;;;;11.63;3.60;;;;;;;9.70;100.00;97208.09;6083659;19;20022;-73
2023/11/05 08:16:39;;;;;;;15.15;4.05;;;;;;;9.71;100.00;97201.88;6083756;19;20498;-74
2023/11/05 08:18:44;;;;;;;10.07;4.20;;;;;;;9.77;100.00;97203.91;6084622;19;20007;-68
2023/11/05 08:20:49;;;;;;;14.15;3.92;;;;;;;9.81;100.00;97213.13;6083178;19;20034;-73
2023/11/05 08:22:54;;;;;;;11.80;3.85;;;;;;;9.85;100.00;97212.69;6079464;19;20494;-73
2023/11/05 08:24:57;;;;;;;14.50;3.97;;;;;;;9.91;100.00;97220.94;6080336;19;20007;-69
2023/11/05 08:27:03;;;;;;;;;;;;;;;9.92;100.00;97228.66;6076308;19;20002;-69
2023/11/05 08:29:08;;;;;;;9.25;3.95;;;;;;;9.98;100.00;97233.34;6081240;19;19914;-70
2023/11/05 08:31:13;;;;;;;16.67;4.28;;;;;;;10.00;100.00;97234.00;6082737;19;20023;-72
2023/11/05 08:33:24;;;;;;;12.05;3.88;;;;;;;10.02;100.00;97231.22;6081449;19;20542;-73
2023/11/05 08:35:29;;;;;;;11.35;4.00;;;;;;;10.00;100.00;97241.84;6078984;19;21187;-73
2023/11/05 08:37:38;;;;;;;8.80;3.55;;;;;;;10.00;100.00;97241.03;6080965;19;20046;-72
2023/11/05 08:39:43;;;;;;;7.85;3.20;;;;;;;10.06;100.00;97245.72;6081937;19;20010;-72
2023/11/05 08:41:49;;;;;;;11.85;4.03;;;;;;;10.08;100.00;97239.34;6080577;19;20356;-72
2023/11/05 08:43:54;;;;;;;9.30;3.38;;;;;;;10.04;100.00;97245.84;6078834;19;20007;-72
2023/11/05 08:45:57;;;;;;;16.77;4.80;;;;;;;10.11;100.00;97261.84;6077294;19;21314;-72
2023/11/05 08:48:02;;;;;;;;;;;;;;;10.08;100.00;97257.72;6078517;19;20002;-72
2023/11/05 08:50:11;;;;;;;15.20;4.25;;;;;;;10.12;100.00;97263.47;6078442;19;20302;-73
2023/11/05 08:52:13;;;;;;;13.38;4.38;;;;;;;10.11;100.00;97267.91;6077057;19;20010;-71
2023/11/05 08:54:21;;;;;;;14.60;4.03;;;;;;;10.08;100.00;97267.34;6078960;19;20006;-71
2023/11/05 08:56:26;;;;;;;12.48;4.90;;;;;;;10.05;100.00;97271.09;6080082;19;21016;-72
2023/11/05 08:58:31;;;;;;;10.50;4.00;;;;;;;10.13;100.00;97280.03;6074568;19;20025;-70
2023/11/05 09:00:36;;;;;;;13.38;4.30;;;;;;;10.08;100.00;97283.94;6077892;19;20561;-69
2023/11/05 09:02:41;;;;;;;13.82;4.80;;;;;;;10.04;100.00;97289.63;6076074;19;20606;-70
2023/11/05 09:04:46;;;;;;;19.05;4.53;;;;;;;10.02;100.00;97287.13;6079288;19;20014;-70
2023/11/05 09:06:54;;;;;;;8.98;3.67;;;;;;;10.01;100.00;97290.75;6079321;19;20014;-72
2023/11/05 09:09:00;;;;;;;17.60;6.40;;;;;;;10.01;100.00;97296.00;6079020;19;20005;-72
2023/11/05 09:11:08;;;;;;;13.80;4.50;;;;;;;10.05;100.00;97299.13;6079297;19;20086;-68
2023/11/05 09:13:13;;;;;;;8.88;4.32;;;;;;;10.03;100.00;97312.41;6078317;19;20006;-71
2023/11/05 09:15:22;;;;;;;10.88;4.85;;;;;;;10.03;100.00;97311.56;6079513;19;20029;-73
2023/11/05 09:17:28;;;;;;;21.58;5.45;;;;;;;10.03;100.00;97314.19;6074374;19;20018;-71
2023/11/05 09:19:33;;;;;;;15.73;5.80;;;;;;;10.02;100.00;97329.09;6076135;19;20030;-73
2023/11/05 09:21:41;;;;;;;15.88;5.07;;;;;;;9.97;100.00;97330.50;6074319;19;20010;-73
2023/11/05 09:23:49;;;;;;;14.57;4.78;;;;;;;10.04;100.00;97327.16;6076131;19;20014;-73
2023/11/05 09:25:55;;;;;;;13.30;5.00;;;;;;;10.06;100.00;97338.34;6077539;19;20461;-73
2023/11/05 09:28:03;;;;;;;10.48;4.22;;;;;;;10.06;100.00;97348.84;6076948;19;20017;-70
2023/11/05 09:30:11;;;;;;;9.52;3.88;;;;;;;10.10;100.00;97354.63;6076097;19;20006;-72
2023/11/05 09:32:17;;;;;;;12.88;4.00;;;;;;;10.15;100.00;97367.31;6076640;19;20007;-72
2023/11/05 09:34:20;;;;;;;9.27;3.90;;;;;;;10.11;100.00;97367.59;6080345;19;20487;-72
2023/11/05 09:36:25;;;;;;;10.00;3.35;;;;;;;10.16;100.00;97376.81;6075296;19;20017;-72
2023/11/05 09:38:28;;;;;;;5.38;2.13;;;;;;;10.21;100.00;97387.72;6077148;19;19998;-72
2023/11/05 09:40:36;;;;;;;7.57;2.22;;;;;;;10.15;100.00;97393.53;6077778;19;20755;-71
2023/11/05 09:42:47;;;;;;;5.38;2.28;;;;;;;10.13;100.00;97400.72;6077494;19;20003;-72
2023/11/05 09:44:50;;;;;;;6.60;1.90;;;;;;;10.14;100.00;97408.47;6079117;19;20013;-71